createdAt,value
2019-03-16T00:01:12.862Z,95528.00
2019-03-16T00:06:14.794Z,95538.00
2019-03-16T00:11:18.397Z,95557.00
2019-03-16T00:16:20.883Z,95536.00
2019-03-16T00:21:25.903Z,95543.00
2019-03-16T00:26:30.719Z,95543.00
2019-03-16T00:31:33.258Z,95533.00
2019-03-16T00:36:35.793Z,95546.00
2019-03-16T00:41:38.245Z,95546.00
2019-03-16T00:46:40.978Z,95548.00
2019-03-16T00:51:45.613Z,95541.00
2019-03-16T00:56:48.025Z,95537.00
2019-03-16T01:01:50.576Z,95558.00
2019-03-16T01:06:53.176Z,95524.00
2019-03-16T01:11:56.207Z,95568.00
2019-03-16T01:16:58.757Z,95538.00
2019-03-16T01:22:02.533Z,95548.00
2019-03-16T01:27:10.654Z,95582.00
2019-03-16T01:32:13.213Z,95550.00
2019-03-16T01:37:15.525Z,95579.00
2019-03-16T01:42:18.787Z,95566.00
2019-03-16T01:47:21.345Z,95528.00
2019-03-16T01:52:24.343Z,95571.00
2019-03-16T01:57:26.928Z,95586.00
2019-03-16T02:02:29.353Z,95588.00
2019-03-16T02:07:32.075Z,95588.00
2019-03-16T02:12:35.978Z,95576.00
2019-03-16T02:17:38.416Z,95596.00
2019-03-16T02:22:53.473Z,95607.00
2019-03-16T02:27:55.995Z,95605.00
2019-03-16T02:33:11.677Z,95417.00
2019-03-16T02:38:03.125Z,95611.00
2019-03-16T02:43:05.564Z,95622.00
2019-03-16T02:48:08.456Z,95635.00
2019-03-16T02:53:11.913Z,95621.00
2019-03-16T02:58:14.313Z,95611.00
2019-03-16T03:03:29.348Z,95598.00
2019-03-16T03:08:22.921Z,95638.00
2019-03-16T03:13:25.435Z,95645.00
2019-03-16T03:18:27.871Z,95638.00
2019-03-16T03:23:32.782Z,95645.00
2019-03-16T03:28:35.275Z,95668.00
2019-03-16T03:33:57.464Z,95662.00
2019-03-16T03:38:42.135Z,95657.00
2019-03-16T03:43:45.005Z,95672.00
2019-03-16T03:48:47.404Z,95673.00
2019-03-16T03:53:51.029Z,95678.00
2019-03-16T03:58:53.690Z,95706.00
2019-03-16T04:04:14.098Z,95706.00
2019-03-16T04:15:06.384Z,95705.00
2019-03-16T04:20:09.510Z,95726.00
2019-03-16T04:25:12.206Z,95698.00
2019-03-16T04:30:14.597Z,95718.00
2019-03-16T04:35:17.956Z,95726.00
2019-03-16T04:40:20.986Z,95735.00
2019-03-16T04:45:23.443Z,95740.00
2019-03-16T04:50:26.025Z,95735.00
2019-03-16T04:55:28.462Z,95731.00
2019-03-16T05:00:31.229Z,95711.00
2019-03-16T05:05:34.431Z,95730.00
2019-03-16T05:10:38.562Z,95728.00
2019-03-16T05:15:41.025Z,95752.00
2019-03-16T05:20:44.529Z,95762.00
2019-03-16T05:25:47.543Z,95764.00
2019-03-16T05:30:50.061Z,95769.00
2019-03-16T05:35:52.680Z,95770.00
2019-03-16T05:40:56.213Z,95778.00
2019-03-16T05:45:59.052Z,95763.00
2019-03-16T05:51:01.827Z,95775.00
2019-03-16T05:56:05.568Z,95777.00
2019-03-16T06:01:09.212Z,95791.00
2019-03-16T06:06:12.067Z,95799.00
2019-03-16T06:11:14.581Z,95798.00
2019-03-16T06:16:17.656Z,95812.00
2019-03-16T06:21:20.322Z,95819.00
2019-03-16T06:26:22.864Z,95835.00
2019-03-16T06:31:26.343Z,95839.00
2019-03-16T06:36:29.675Z,95844.00
2019-03-16T06:41:34.216Z,95842.00
2019-03-16T06:47:04.556Z,95843.00
2019-03-16T06:52:21.567Z,95837.00
2019-03-16T07:08:34.199Z,95856.00
2019-03-16T07:13:39.127Z,95857.00
2019-03-16T07:18:41.992Z,95857.00
2019-03-16T07:23:44.571Z,95867.00
2019-03-16T07:28:47.568Z,95885.00
2019-03-16T07:34:00.303Z,95880.00
2019-03-16T07:39:04.167Z,95878.00
2019-03-16T07:44:06.913Z,95861.00
2019-03-16T07:49:10.672Z,95885.00
2019-03-16T07:54:13.868Z,95889.00
2019-03-16T07:59:17.233Z,95893.00
2019-03-16T08:04:19.998Z,95882.00
2019-03-16T08:09:23.481Z,95890.00
2019-03-16T08:14:29.307Z,95903.00
2019-03-16T08:25:09.956Z,95911.00
2019-03-16T08:30:12.780Z,95924.00
2019-03-16T08:35:15.348Z,95913.00
2019-03-16T08:40:17.772Z,95914.00
2019-03-16T08:45:20.651Z,95907.00
2019-03-16T08:50:23.165Z,95921.00
2019-03-16T08:55:25.804Z,95917.00
2019-03-16T09:00:28.250Z,95933.00
2019-03-16T09:05:31.237Z,95909.00
2019-03-16T09:10:42.132Z,95919.00
2019-03-16T09:15:47.399Z,95940.00
2019-03-16T09:20:52.211Z,95942.00
2019-03-16T09:25:57.248Z,95926.00
2019-03-16T09:37:14.369Z,95957.00
2019-03-16T09:42:16.936Z,95946.00
2019-03-16T09:47:20.375Z,95927.00
2019-03-16T09:52:24.012Z,95939.00
2019-03-16T09:57:27.522Z,95940.00
2019-03-16T10:02:29.908Z,95928.00
2019-03-16T10:13:36.174Z,95937.00
2019-03-16T10:18:38.757Z,95953.00
2019-03-16T10:23:43.027Z,95945.00
2019-03-16T10:28:46.160Z,95958.00
2019-03-16T10:33:48.627Z,95962.00
2019-03-16T10:38:59.328Z,95965.00
2019-03-16T10:44:02.295Z,95947.00
2019-03-16T10:49:12.460Z,95973.00
2019-03-16T10:54:15.589Z,95984.00
2019-03-16T10:59:19.110Z,95986.00
2019-03-16T11:04:21.701Z,95987.00
2019-03-16T11:09:26.636Z,95999.00
2019-03-16T11:14:28.855Z,96005.00
2019-03-16T11:19:31.436Z,96001.00
2019-03-16T11:24:34.087Z,96000.00
2019-03-16T11:29:38.388Z,95995.00
2019-03-16T11:34:41.280Z,95992.00
2019-03-16T11:39:44.309Z,95988.00
2019-03-16T11:44:47.618Z,95951.00
2019-03-16T11:49:50.075Z,95955.00
2019-03-16T11:54:52.474Z,95956.00
2019-03-16T11:59:56.238Z,95956.00
2019-03-16T12:04:59.373Z,95931.00
2019-03-16T12:10:01.838Z,95917.00
2019-03-16T12:15:04.584Z,95926.00
2019-03-16T12:20:08.466Z,95915.00
2019-03-16T12:25:11.100Z,95925.00
2019-03-16T12:30:14.657Z,95930.00
2019-03-16T12:35:17.198Z,95867.00
2019-03-16T12:40:19.783Z,95904.00
2019-03-16T12:45:22.178Z,95902.00
2019-03-16T12:50:24.701Z,95895.00
2019-03-16T12:55:27.277Z,95895.00
2019-03-16T13:00:31.190Z,95899.00
2019-03-16T13:05:33.612Z,95905.00
2019-03-16T13:10:36.116Z,95888.00
2019-03-16T13:15:38.634Z,95889.00
2019-03-16T13:20:41.368Z,95895.00
2019-03-16T13:25:44.109Z,95877.00
2019-03-16T13:30:46.669Z,95875.00
2019-03-16T13:35:50.017Z,95867.00
2019-03-16T13:40:53.008Z,95869.00
2019-03-16T13:45:55.462Z,95874.00
2019-03-16T13:50:57.840Z,95858.00
2019-03-16T13:56:00.488Z,95845.00
2019-03-16T14:01:04.815Z,95834.00
2019-03-16T14:06:08.311Z,95841.00
2019-03-16T14:11:11.505Z,95836.00
2019-03-16T14:16:14.302Z,95830.00
2019-03-16T14:21:17.187Z,95823.00
2019-03-16T14:26:20.404Z,95813.00
2019-03-16T14:31:23.676Z,95825.00
2019-03-16T14:36:26.341Z,95809.00
2019-03-16T14:41:30.391Z,95819.00
2019-03-16T14:46:33.414Z,95810.00
2019-03-16T14:51:36.066Z,95805.00
2019-03-16T14:56:38.808Z,95799.00
2019-03-16T15:01:42.201Z,95800.00
2019-03-16T15:07:02.178Z,95792.00
2019-03-16T15:12:05.605Z,95821.00
2019-03-16T15:17:07.999Z,95809.00
2019-03-16T15:22:12.353Z,95803.00
2019-03-16T15:27:15.984Z,95796.00
2019-03-16T15:32:20.703Z,95792.00
2019-03-16T15:37:23.268Z,95791.00
2019-03-16T15:42:25.832Z,95775.00
2019-03-16T15:47:30.003Z,95771.00
2019-03-16T15:52:34.044Z,95773.00
2019-03-16T15:57:37.127Z,95768.00
2019-03-16T16:02:42.868Z,95777.00
2019-03-16T16:07:45.416Z,95771.00
2019-03-16T16:12:48.170Z,95769.00
2019-03-16T16:17:51.301Z,95765.00
2019-03-16T16:22:53.955Z,95761.00
2019-03-16T16:27:56.533Z,95750.00
2019-03-16T16:33:33.792Z,95758.00
2019-03-16T16:38:36.268Z,95761.00
2019-03-16T16:43:39.881Z,95752.00
2019-03-16T16:48:42.791Z,95750.00
2019-03-16T16:53:45.760Z,95743.00
2019-03-16T16:58:48.177Z,95739.00
2019-03-16T17:03:51.284Z,95746.00
2019-03-16T17:08:55.245Z,95738.00
2019-03-16T17:13:58.214Z,95742.00
2019-03-16T17:24:49.736Z,95727.00
2019-03-16T17:29:52.567Z,95417.00
2019-03-16T17:34:56.010Z,95707.00
2019-03-16T17:39:58.526Z,95693.00
2019-03-16T17:45:01.045Z,95678.00
2019-03-16T17:50:05.388Z,95675.00
2019-03-16T17:55:08.518Z,95674.00
2019-03-16T18:00:12.024Z,95681.00
2019-03-16T18:05:16.292Z,95679.00
2019-03-16T18:10:19.360Z,95681.00
2019-03-16T18:15:22.042Z,95679.00
2019-03-16T18:21:04.059Z,95672.00
2019-03-16T18:26:07.743Z,95669.00
2019-03-16T18:36:58.904Z,95675.00
2019-03-16T18:42:04.826Z,95678.00
2019-03-16T18:53:09.647Z,95663.00
2019-03-16T18:58:46.125Z,95666.00
2019-03-16T19:03:51.689Z,95640.00
2019-03-16T19:08:56.324Z,95669.00
2019-03-16T19:13:58.840Z,95662.00
2019-03-16T19:19:01.286Z,95674.00
2019-03-16T19:24:37.368Z,95660.00
2019-03-16T19:46:22.384Z,95649.00
2019-03-16T19:51:25.149Z,95645.00
2019-03-16T20:02:29.486Z,95641.00
2019-03-16T21:41:49.939Z,95632.00
2019-03-16T21:46:55.001Z,95631.00
